sensor_id;sensor_type;location;lat;lon;timestamp;P1;durP1;ratioP1;P2;durP2;ratioP2
56429;SDS011;42332;52.136;20.666;2023-07-02T00:02:03;28.65;;;14.07;;
56429;SDS011;42332;52.136;20.666;2023-07-02T00:04:29;35.08;;;15.18;;
56429;SDS011;42332;52.136;20.666;2023-07-02T00:06:54;27.27;;;14.23;;
56429;SDS011;42332;52.136;20.666;2023-07-02T00:09:20;33.85;;;14.25;;
56429;SDS011;42332;52.136;20.666;2023-07-02T00:11:45;26.85;;;14.23;;
56429;SDS011;42332;52.136;20.666;2023-07-02T00:14:11;35.75;;;14.52;;
56429;SDS011;42332;52.136;20.666;2023-07-02T00:16:37;34.10;;;14.88;;
56429;SDS011;42332;52.136;20.666;2023-07-02T00:19:04;29.35;;;15.18;;
56429;SDS011;42332;52.136;20.666;2023-07-02T00:21:29;29.13;;;14.18;;
56429;SDS011;42332;52.136;20.666;2023-07-02T00:23:57;27.02;;;14.02;;
56429;SDS011;42332;52.136;20.666;2023-07-02T00:26:26;34.78;;;15.50;;
56429;SDS011;42332;52.136;20.666;2023-07-02T00:28:55;29.40;;;13.82;;
56429;SDS011;42332;52.136;20.666;2023-07-02T00:31:21;27.17;;;14.55;;
56429;SDS011;42332;52.136;20.666;2023-07-02T00:33:47;31.67;;;14.88;;
56429;SDS011;42332;52.136;20.666;2023-07-02T00:36:13;32.47;;;15.65;;
56429;SDS011;42332;52.136;20.666;2023-07-02T00:38:42;27.40;;;13.70;;
56429;SDS011;42332;52.136;20.666;2023-07-02T00:41:09;31.20;;;13.63;;
56429;SDS011;42332;52.136;20.666;2023-07-02T00:43:35;30.92;;;14.27;;
56429;SDS011;42332;52.136;20.666;2023-07-02T00:46:01;30.90;;;14.57;;
56429;SDS011;42332;52.136;20.666;2023-07-02T00:48:27;29.67;;;15.43;;
56429;SDS011;42332;52.136;20.666;2023-07-02T00:50:53;29.35;;;14.63;;
56429;SDS011;42332;52.136;20.666;2023-07-02T00:53:18;29.98;;;14.60;;
56429;SDS011;42332;52.136;20.666;2023-07-02T00:55:44;32.45;;;14.68;;
56429;SDS011;42332;52.136;20.666;2023-07-02T00:58:09;27.70;;;14.60;;
56429;SDS011;42332;52.136;20.666;2023-07-02T01:00:35;29.20;;;14.05;;
56429;SDS011;42332;52.136;20.666;2023-07-02T01:03:00;31.35;;;15.95;;
56429;SDS011;42332;52.136;20.666;2023-07-02T01:05:28;30.27;;;15.02;;
56429;SDS011;42332;52.136;20.666;2023-07-02T01:08:01;36.15;;;15.43;;
56429;SDS011;42332;52.136;20.666;2023-07-02T01:10:27;31.27;;;15.70;;
56429;SDS011;42332;52.136;20.666;2023-07-02T01:12:53;30.25;;;15.50;;
56429;SDS011;42332;52.136;20.666;2023-07-02T01:15:19;31.55;;;15.10;;
56429;SDS011;42332;52.136;20.666;2023-07-02T01:17:44;31.00;;;15.38;;
56429;SDS011;42332;52.136;20.666;2023-07-02T01:20:11;32.15;;;15.82;;
56429;SDS011;42332;52.136;20.666;2023-07-02T01:22:37;30.10;;;15.05;;
56429;SDS011;42332;52.136;20.666;2023-07-02T01:25:03;33.40;;;14.90;;
56429;SDS011;42332;52.136;20.666;2023-07-02T01:27:29;31.05;;;15.88;;
56429;SDS011;42332;52.136;20.666;2023-07-02T01:29:55;29.35;;;14.90;;
56429;SDS011;42332;52.136;20.666;2023-07-02T01:32:20;29.75;;;15.10;;
56429;SDS011;42332;52.136;20.666;2023-07-02T01:34:46;33.67;;;15.68;;
56429;SDS011;42332;52.136;20.666;2023-07-02T01:37:17;32.03;;;16.15;;
56429;SDS011;42332;52.136;20.666;2023-07-02T01:39:43;33.17;;;15.55;;
56429;SDS011;42332;52.136;20.666;2023-07-02T01:44:35;32.78;;;15.68;;
56429;SDS011;42332;52.136;20.666;2023-07-02T01:47:00;37.97;;;16.48;;
56429;SDS011;42332;52.136;20.666;2023-07-02T01:49:26;29.15;;;15.93;;
56429;SDS011;42332;52.136;20.666;2023-07-02T01:51:51;30.10;;;14.45;;
56429;SDS011;42332;52.136;20.666;2023-07-02T01:54:17;28.52;;;14.45;;
56429;SDS011;42332;52.136;20.666;2023-07-02T01:56:43;32.30;;;15.02;;
56429;SDS011;42332;52.136;20.666;2023-07-02T01:59:08;33.50;;;14.30;;
56429;SDS011;42332;52.136;20.666;2023-07-02T02:01:34;27.40;;;14.60;;
56429;SDS011;42332;52.136;20.666;2023-07-02T02:03:59;29.08;;;14.73;;
56429;SDS011;42332;52.136;20.666;2023-07-02T02:06:25;36.15;;;14.43;;
56429;SDS011;42332;52.136;20.666;2023-07-02T02:08:50;25.95;;;13.50;;
56429;SDS011;42332;52.136;20.666;2023-07-02T02:11:15;25.75;;;13.45;;
56429;SDS011;42332;52.136;20.666;2023-07-02T02:13:41;26.27;;;13.52;;
56429;SDS011;42332;52.136;20.666;2023-07-02T02:16:06;24.85;;;12.73;;
56429;SDS011;42332;52.136;20.666;2023-07-02T02:18:32;23.88;;;13.57;;
56429;SDS011;42332;52.136;20.666;2023-07-02T02:20:57;23.67;;;12.60;;
56429;SDS011;42332;52.136;20.666;2023-07-02T02:23:22;22.50;;;12.30;;
56429;SDS011;42332;52.136;20.666;2023-07-02T02:25:48;23.30;;;12.52;;
56429;SDS011;42332;52.136;20.666;2023-07-02T02:28:13;27.70;;;12.82;;
56429;SDS011;42332;52.136;20.666;2023-07-02T02:30:38;33.72;;;14.00;;
56429;SDS011;42332;52.136;20.666;2023-07-02T02:33:04;24.33;;;12.98;;
56429;SDS011;42332;52.136;20.666;2023-07-02T02:35:29;26.52;;;12.98;;
56429;SDS011;42332;52.136;20.666;2023-07-02T02:37:54;22.27;;;12.07;;
56429;SDS011;42332;52.136;20.666;2023-07-02T02:40:20;26.15;;;12.43;;
56429;SDS011;42332;52.136;20.666;2023-07-02T02:42:45;22.20;;;11.20;;
56429;SDS011;42332;52.136;20.666;2023-07-02T02:45:10;24.83;;;12.80;;
56429;SDS011;42332;52.136;20.666;2023-07-02T02:47:36;25.88;;;12.20;;
56429;SDS011;42332;52.136;20.666;2023-07-02T02:50:01;24.05;;;11.98;;
56429;SDS011;42332;52.136;20.666;2023-07-02T02:52:26;28.10;;;12.30;;
56429;SDS011;42332;52.136;20.666;2023-07-02T02:54:52;26.10;;;12.00;;
56429;SDS011;42332;52.136;20.666;2023-07-02T02:57:20;23.15;;;11.77;;
56429;SDS011;42332;52.136;20.666;2023-07-02T02:59:45;21.77;;;11.70;;
56429;SDS011;42332;52.136;20.666;2023-07-02T03:02:11;21.13;;;11.93;;
56429;SDS011;42332;52.136;20.666;2023-07-02T03:04:36;24.75;;;11.82;;
56429;SDS011;42332;52.136;20.666;2023-07-02T03:07:06;28.08;;;12.18;;
56429;SDS011;42332;52.136;20.666;2023-07-02T03:09:32;21.92;;;11.50;;
56429;SDS011;42332;52.136;20.666;2023-07-02T03:11:58;18.13;;;10.43;;
56429;SDS011;42332;52.136;20.666;2023-07-02T03:14:23;21.70;;;10.98;;
56429;SDS011;42332;52.136;20.666;2023-07-02T03:16:48;19.88;;;10.65;;
56429;SDS011;42332;52.136;20.666;2023-07-02T03:19:14;22.40;;;11.05;;
56429;SDS011;42332;52.136;20.666;2023-07-02T03:21:41;19.23;;;10.27;;
56429;SDS011;42332;52.136;20.666;2023-07-02T03:24:07;22.90;;;10.63;;
56429;SDS011;42332;52.136;20.666;2023-07-02T03:26:34;22.60;;;10.48;;
56429;SDS011;42332;52.136;20.666;2023-07-02T03:29:00;21.20;;;10.52;;
56429;SDS011;42332;52.136;20.666;2023-07-02T03:31:25;21.98;;;10.52;;
56429;SDS011;42332;52.136;20.666;2023-07-02T03:33:50;22.65;;;10.00;;
56429;SDS011;42332;52.136;20.666;2023-07-02T03:36:16;18.20;;;9.60;;
56429;SDS011;42332;52.136;20.666;2023-07-02T03:38:41;21.25;;;10.50;;
56429;SDS011;42332;52.136;20.666;2023-07-02T03:41:07;16.95;;;9.40;;
56429;SDS011;42332;52.136;20.666;2023-07-02T03:43:32;19.42;;;9.60;;
56429;SDS011;42332;52.136;20.666;2023-07-02T03:45:58;20.48;;;9.18;;
56429;SDS011;42332;52.136;20.666;2023-07-02T03:48:23;18.20;;;8.68;;
56429;SDS011;42332;52.136;20.666;2023-07-02T03:50:48;19.75;;;8.95;;
56429;SDS011;42332;52.136;20.666;2023-07-02T03:53:14;17.00;;;8.75;;
56429;SDS011;42332;52.136;20.666;2023-07-02T03:55:39;27.25;;;9.15;;
56429;SDS011;42332;52.136;20.666;2023-07-02T03:58:05;17.88;;;9.43;;
56429;SDS011;42332;52.136;20.666;2023-07-02T04:00:30;14.90;;;8.52;;
56429;SDS011;42332;52.136;20.666;2023-07-02T04:02:55;14.98;;;8.10;;
56429;SDS011;42332;52.136;20.666;2023-07-02T04:05:21;16.58;;;8.32;;
56429;SDS011;42332;52.136;20.666;2023-07-02T04:07:46;21.52;;;9.10;;
56429;SDS011;42332;52.136;20.666;2023-07-02T04:10:12;17.35;;;8.18;;
56429;SDS011;42332;52.136;20.666;2023-07-02T04:12:37;15.38;;;7.97;;
56429;SDS011;42332;52.136;20.666;2023-07-02T04:15:03;14.80;;;7.70;;
56429;SDS011;42332;52.136;20.666;2023-07-02T04:17:30;16.25;;;8.02;;
56429;SDS011;42332;52.136;20.666;2023-07-02T04:19:55;14.25;;;7.30;;
56429;SDS011;42332;52.136;20.666;2023-07-02T04:22:21;14.65;;;7.65;;
56429;SDS011;42332;52.136;20.666;2023-07-02T04:24:46;16.73;;;7.20;;
56429;SDS011;42332;52.136;20.666;2023-07-02T04:27:14;15.07;;;7.30;;
56429;SDS011;42332;52.136;20.666;2023-07-02T04:29:42;14.85;;;6.75;;
56429;SDS011;42332;52.136;20.666;2023-07-02T04:32:08;14.18;;;7.13;;
56429;SDS011;42332;52.136;20.666;2023-07-02T04:34:33;17.52;;;7.53;;
56429;SDS011;42332;52.136;20.666;2023-07-02T04:37:01;16.48;;;6.97;;
56429;SDS011;42332;52.136;20.666;2023-07-02T04:39:29;14.32;;;7.00;;
56429;SDS011;42332;52.136;20.666;2023-07-02T04:41:55;11.73;;;6.20;;
56429;SDS011;42332;52.136;20.666;2023-07-02T04:44:20;15.27;;;6.65;;
56429;SDS011;42332;52.136;20.666;2023-07-02T04:46:55;18.98;;;7.80;;
56429;SDS011;42332;52.136;20.666;2023-07-02T04:49:25;17.15;;;6.60;;
56429;SDS011;42332;52.136;20.666;2023-07-02T04:51:50;17.60;;;7.57;;
56429;SDS011;42332;52.136;20.666;2023-07-02T04:54:16;15.70;;;7.15;;
56429;SDS011;42332;52.136;20.666;2023-07-02T04:56:41;12.13;;;6.75;;
56429;SDS011;42332;52.136;20.666;2023-07-02T04:59:06;15.30;;;7.30;;
56429;SDS011;42332;52.136;20.666;2023-07-02T05:01:32;12.48;;;6.78;;
56429;SDS011;42332;52.136;20.666;2023-07-02T05:03:57;11.00;;;6.38;;
56429;SDS011;42332;52.136;20.666;2023-07-02T05:06:22;15.88;;;7.28;;
56429;SDS011;42332;52.136;20.666;2023-07-02T05:08:47;13.73;;;6.55;;
56429;SDS011;42332;52.136;20.666;2023-07-02T05:11:13;14.80;;;6.22;;
56429;SDS011;42332;52.136;20.666;2023-07-02T05:13:38;13.55;;;6.75;;
56429;SDS011;42332;52.136;20.666;2023-07-02T05:16:03;12.30;;;5.90;;
56429;SDS011;42332;52.136;20.666;2023-07-02T05:18:29;11.13;;;6.25;;
56429;SDS011;42332;52.136;20.666;2023-07-02T05:20:54;15.15;;;6.45;;
56429;SDS011;42332;52.136;20.666;2023-07-02T05:23:19;17.38;;;6.05;;
56429;SDS011;42332;52.136;20.666;2023-07-02T05:25:45;10.75;;;6.05;;
56429;SDS011;42332;52.136;20.666;2023-07-02T05:28:11;16.35;;;6.15;;
56429;SDS011;42332;52.136;20.666;2023-07-02T05:30:36;14.77;;;6.55;;
56429;SDS011;42332;52.136;20.666;2023-07-02T05:33:01;15.93;;;5.85;;
56429;SDS011;42332;52.136;20.666;2023-07-02T05:35:27;13.15;;;6.18;;
56429;SDS011;42332;52.136;20.666;2023-07-02T05:37:52;13.63;;;6.25;;
56429;SDS011;42332;52.136;20.666;2023-07-02T05:40:17;12.00;;;5.22;;
56429;SDS011;42332;52.136;20.666;2023-07-02T05:42:43;12.93;;;5.97;;
56429;SDS011;42332;52.136;20.666;2023-07-02T05:45:08;12.15;;;6.78;;
56429;SDS011;42332;52.136;20.666;2023-07-02T05:47:34;14.30;;;6.72;;
56429;SDS011;42332;52.136;20.666;2023-07-02T05:49:59;18.00;;;7.97;;
56429;SDS011;42332;52.136;20.666;2023-07-02T05:52:24;15.40;;;6.40;;
56429;SDS011;42332;52.136;20.666;2023-07-02T05:54:50;18.55;;;6.95;;
56429;SDS011;42332;52.136;20.666;2023-07-02T05:57:15;15.15;;;6.97;;
56429;SDS011;42332;52.136;20.666;2023-07-02T05:59:40;13.88;;;6.00;;
56429;SDS011;42332;52.136;20.666;2023-07-02T06:02:05;11.35;;;6.22;;
56429;SDS011;42332;52.136;20.666;2023-07-02T06:04:31;13.25;;;5.95;;
56429;SDS011;42332;52.136;20.666;2023-07-02T06:06:56;13.07;;;5.90;;
56429;SDS011;42332;52.136;20.666;2023-07-02T06:09:22;17.65;;;7.03;;
56429;SDS011;42332;52.136;20.666;2023-07-02T06:11:47;13.25;;;6.82;;
56429;SDS011;42332;52.136;20.666;2023-07-02T06:14:13;13.68;;;6.50;;
56429;SDS011;42332;52.136;20.666;2023-07-02T06:16:38;14.10;;;6.25;;
56429;SDS011;42332;52.136;20.666;2023-07-02T06:19:04;13.52;;;5.93;;
56429;SDS011;42332;52.136;20.666;2023-07-02T06:21:29;15.80;;;6.75;;
56429;SDS011;42332;52.136;20.666;2023-07-02T06:23:55;11.82;;;5.50;;
56429;SDS011;42332;52.136;20.666;2023-07-02T06:26:22;12.88;;;6.15;;
56429;SDS011;42332;52.136;20.666;2023-07-02T06:28:48;6.85;;;3.55;;
56429;SDS011;42332;52.136;20.666;2023-07-02T06:31:13;11.80;;;5.65;;
56429;SDS011;42332;52.136;20.666;2023-07-02T06:33:39;16.52;;;5.32;;
56429;SDS011;42332;52.136;20.666;2023-07-02T06:36:05;18.80;;;5.70;;
56429;SDS011;42332;52.136;20.666;2023-07-02T06:38:31;14.70;;;6.00;;
56429;SDS011;42332;52.136;20.666;2023-07-02T06:40:56;11.63;;;5.10;;
56429;SDS011;42332;52.136;20.666;2023-07-02T06:43:21;12.57;;;5.53;;
56429;SDS011;42332;52.136;20.666;2023-07-02T06:45:47;14.82;;;6.63;;
56429;SDS011;42332;52.136;20.666;2023-07-02T06:48:12;12.82;;;5.88;;
56429;SDS011;42332;52.136;20.666;2023-07-02T06:50:42;10.75;;;4.85;;
56429;SDS011;42332;52.136;20.666;2023-07-02T06:53:11;15.48;;;6.00;;
56429;SDS011;42332;52.136;20.666;2023-07-02T06:55:36;11.63;;;5.20;;
56429;SDS011;42332;52.136;20.666;2023-07-02T06:58:03;13.10;;;5.60;;
56429;SDS011;42332;52.136;20.666;2023-07-02T07:00:31;12.30;;;4.88;;
56429;SDS011;42332;52.136;20.666;2023-07-02T07:02:57;10.55;;;4.82;;
56429;SDS011;42332;52.136;20.666;2023-07-02T07:05:22;9.77;;;4.90;;
56429;SDS011;42332;52.136;20.666;2023-07-02T07:07:48;7.25;;;3.70;;
56429;SDS011;42332;52.136;20.666;2023-07-02T07:10:13;9.60;;;4.50;;
56429;SDS011;42332;52.136;20.666;2023-07-02T07:12:38;10.18;;;4.43;;
56429;SDS011;42332;52.136;20.666;2023-07-02T07:15:04;11.90;;;4.13;;
56429;SDS011;42332;52.136;20.666;2023-07-02T07:17:29;9.65;;;4.43;;
56429;SDS011;42332;52.136;20.666;2023-07-02T07:19:54;7.15;;;4.07;;
56429;SDS011;42332;52.136;20.666;2023-07-02T07:22:20;9.52;;;5.03;;
56429;SDS011;42332;52.136;20.666;2023-07-02T07:24:45;8.48;;;4.35;;
56429;SDS011;42332;52.136;20.666;2023-07-02T07:27:10;12.40;;;4.88;;
56429;SDS011;42332;52.136;20.666;2023-07-02T07:29:36;9.90;;;4.25;;
56429;SDS011;42332;52.136;20.666;2023-07-02T07:32:01;9.07;;;3.92;;
56429;SDS011;42332;52.136;20.666;2023-07-02T07:34:27;6.35;;;2.83;;
56429;SDS011;42332;52.136;20.666;2023-07-02T07:36:52;9.18;;;4.10;;
56429;SDS011;42332;52.136;20.666;2023-07-02T07:39:18;9.93;;;4.68;;
56429;SDS011;42332;52.136;20.666;2023-07-02T07:41:46;12.77;;;4.25;;
56429;SDS011;42332;52.136;20.666;2023-07-02T07:44:13;8.05;;;3.92;;
56429;SDS011;42332;52.136;20.666;2023-07-02T07:46:38;9.20;;;4.13;;
56429;SDS011;42332;52.136;20.666;2023-07-02T07:49:03;8.13;;;3.65;;
56429;SDS011;42332;52.136;20.666;2023-07-02T07:51:29;6.78;;;3.72;;
56429;SDS011;42332;52.136;20.666;2023-07-02T07:53:54;9.38;;;3.75;;
56429;SDS011;42332;52.136;20.666;2023-07-02T07:56:19;14.35;;;3.63;;
56429;SDS011;42332;52.136;20.666;2023-07-02T07:58:45;11.65;;;3.72;;
56429;SDS011;42332;52.136;20.666;2023-07-02T08:01:10;9.30;;;3.60;;
56429;SDS011;42332;52.136;20.666;2023-07-02T08:03:37;8.00;;;3.90;;
56429;SDS011;42332;52.136;20.666;2023-07-02T08:06:02;9.23;;;2.50;;
56429;SDS011;42332;52.136;20.666;2023-07-02T08:08:27;6.60;;;3.55;;
56429;SDS011;42332;52.136;20.666;2023-07-02T08:10:53;6.82;;;3.10;;
56429;SDS011;42332;52.136;20.666;2023-07-02T08:13:18;8.13;;;2.90;;
56429;SDS011;42332;52.136;20.666;2023-07-02T08:15:43;10.07;;;3.45;;
56429;SDS011;42332;52.136;20.666;2023-07-02T08:18:09;8.90;;;3.05;;
56429;SDS011;42332;52.136;20.666;2023-07-02T08:20:36;7.50;;;2.95;;
56429;SDS011;42332;52.136;20.666;2023-07-02T08:23:02;5.97;;;2.63;;
56429;SDS011;42332;52.136;20.666;2023-07-02T08:25:27;4.78;;;1.83;;
56429;SDS011;42332;52.136;20.666;2023-07-02T08:27:52;5.85;;;2.40;;
56429;SDS011;42332;52.136;20.666;2023-07-02T08:30:18;7.45;;;2.63;;
56429;SDS011;42332;52.136;20.666;2023-07-02T08:32:43;6.85;;;3.60;;
56429;SDS011;42332;52.136;20.666;2023-07-02T08:35:08;5.97;;;2.25;;
56429;SDS011;42332;52.136;20.666;2023-07-02T08:37:33;6.82;;;3.08;;
56429;SDS011;42332;52.136;20.666;2023-07-02T08:39:59;13.43;;;3.30;;
56429;SDS011;42332;52.136;20.666;2023-07-02T08:42:24;7.25;;;3.05;;
56429;SDS011;42332;52.136;20.666;2023-07-02T08:44:54;6.20;;;2.90;;
56429;SDS011;42332;52.136;20.666;2023-07-02T08:47:20;6.15;;;2.75;;
56429;SDS011;42332;52.136;20.666;2023-07-02T08:49:47;6.78;;;3.42;;
56429;SDS011;42332;52.136;20.666;2023-07-02T08:52:13;6.55;;;2.92;;
56429;SDS011;42332;52.136;20.666;2023-07-02T08:54:38;10.88;;;3.67;;
56429;SDS011;42332;52.136;20.666;2023-07-02T08:57:04;6.35;;;2.72;;
56429;SDS011;42332;52.136;20.666;2023-07-02T08:59:30;6.72;;;3.42;;
56429;SDS011;42332;52.136;20.666;2023-07-02T09:01:56;6.57;;;3.08;;
56429;SDS011;42332;52.136;20.666;2023-07-02T09:07:06;9.93;;;2.97;;
56429;SDS011;42332;52.136;20.666;2023-07-02T09:09:32;6.80;;;3.30;;
56429;SDS011;42332;52.136;20.666;2023-07-02T09:11:58;6.50;;;3.00;;
56429;SDS011;42332;52.136;20.666;2023-07-02T09:14:24;4.38;;;2.35;;
56429;SDS011;42332;52.136;20.666;2023-07-02T09:17:00;10.15;;;3.25;;
56429;SDS011;42332;52.136;20.666;2023-07-02T09:19:29;7.45;;;4.53;;
56429;SDS011;42332;52.136;20.666;2023-07-02T09:21:56;7.25;;;2.60;;
56429;SDS011;42332;52.136;20.666;2023-07-02T09:24:24;8.82;;;2.65;;
56429;SDS011;42332;52.136;20.666;2023-07-02T09:26:51;5.78;;;2.60;;
56429;SDS011;42332;52.136;20.666;2023-07-02T09:29:28;12.40;;;2.90;;
56429;SDS011;42332;52.136;20.666;2023-07-02T09:31:55;8.25;;;2.95;;
56429;SDS011;42332;52.136;20.666;2023-07-02T09:34:26;6.07;;;2.83;;
56429;SDS011;42332;52.136;20.666;2023-07-02T09:36:52;5.28;;;2.85;;
56429;SDS011;42332;52.136;20.666;2023-07-02T09:39:25;5.53;;;2.60;;
56429;SDS011;42332;52.136;20.666;2023-07-02T09:41:52;4.90;;;2.42;;
56429;SDS011;42332;52.136;20.666;2023-07-02T09:44:18;5.30;;;2.88;;
56429;SDS011;42332;52.136;20.666;2023-07-02T09:46:49;6.63;;;2.75;;
56429;SDS011;42332;52.136;20.666;2023-07-02T09:49:20;6.43;;;2.60;;
56429;SDS011;42332;52.136;20.666;2023-07-02T09:51:47;8.57;;;2.50;;
56429;SDS011;42332;52.136;20.666;2023-07-02T09:54:12;5.78;;;2.63;;
56429;SDS011;42332;52.136;20.666;2023-07-02T09:56:39;6.57;;;2.63;;
56429;SDS011;42332;52.136;20.666;2023-07-02T09:59:04;11.77;;;2.40;;
56429;SDS011;42332;52.136;20.666;2023-07-02T10:01:30;6.32;;;2.58;;
56429;SDS011;42332;52.136;20.666;2023-07-02T10:03:55;7.57;;;2.20;;
56429;SDS011;42332;52.136;20.666;2023-07-02T10:06:20;5.43;;;2.20;;
56429;SDS011;42332;52.136;20.666;2023-07-02T10:08:53;9.45;;;2.55;;
56429;SDS011;42332;52.136;20.666;2023-07-02T10:11:19;4.00;;;1.38;;
56429;SDS011;42332;52.136;20.666;2023-07-02T10:13:44;5.13;;;1.73;;
56429;SDS011;42332;52.136;20.666;2023-07-02T10:16:10;3.90;;;1.88;;
56429;SDS011;42332;52.136;20.666;2023-07-02T10:18:35;4.95;;;2.67;;
56429;SDS011;42332;52.136;20.666;2023-07-02T10:21:12;5.07;;;2.10;;
56429;SDS011;42332;52.136;20.666;2023-07-02T10:23:38;4.60;;;1.80;;
56429;SDS011;42332;52.136;20.666;2023-07-02T10:26:37;6.28;;;1.77;;
56429;SDS011;42332;52.136;20.666;2023-07-02T10:28:56;4.15;;;1.58;;
56429;SDS011;42332;52.136;20.666;2023-07-02T10:31:24;4.68;;;1.90;;
56429;SDS011;42332;52.136;20.666;2023-07-02T10:33:50;4.45;;;2.20;;
56429;SDS011;42332;52.136;20.666;2023-07-02T10:36:22;3.65;;;1.67;;
56429;SDS011;42332;52.136;20.666;2023-07-02T10:38:49;5.68;;;1.73;;
56429;SDS011;42332;52.136;20.666;2023-07-02T10:41:27;5.63;;;1.70;;
56429;SDS011;42332;52.136;20.666;2023-07-02T10:43:54;4.22;;;1.30;;
56429;SDS011;42332;52.136;20.666;2023-07-02T10:46:22;4.18;;;1.98;;
56429;SDS011;42332;52.136;20.666;2023-07-02T10:48:53;10.60;;;2.10;;
56429;SDS011;42332;52.136;20.666;2023-07-02T10:51:22;4.43;;;1.60;;
56429;SDS011;42332;52.136;20.666;2023-07-02T10:53:58;4.38;;;1.63;;
56429;SDS011;42332;52.136;20.666;2023-07-02T10:56:24;6.30;;;1.50;;
56429;SDS011;42332;52.136;20.666;2023-07-02T10:58:51;4.30;;;1.80;;
56429;SDS011;42332;52.136;20.666;2023-07-02T11:04:01;3.53;;;1.50;;
56429;SDS011;42332;52.136;20.666;2023-07-02T11:06:31;4.05;;;1.75;;
56429;SDS011;42332;52.136;20.666;2023-07-02T11:08:58;3.65;;;1.52;;
56429;SDS011;42332;52.136;20.666;2023-07-02T11:11:24;5.32;;;1.80;;
56429;SDS011;42332;52.136;20.666;2023-07-02T11:13:50;7.35;;;1.80;;
56429;SDS011;42332;52.136;20.666;2023-07-02T11:16:19;6.47;;;2.20;;
56429;SDS011;42332;52.136;20.666;2023-07-02T11:19:05;7.00;;;1.83;;
56429;SDS011;42332;52.136;20.666;2023-07-02T11:21:33;4.10;;;1.80;;
56429;SDS011;42332;52.136;20.666;2023-07-02T11:24:05;7.00;;;2.10;;
56429;SDS011;42332;52.136;20.666;2023-07-02T11:26:35;4.30;;;1.85;;
56429;SDS011;42332;52.136;20.666;2023-07-02T11:29:06;7.82;;;2.35;;
56429;SDS011;42332;52.136;20.666;2023-07-02T11:31:35;3.70;;;1.75;;
56429;SDS011;42332;52.136;20.666;2023-07-02T11:34:00;4.30;;;1.98;;
56429;SDS011;42332;52.136;20.666;2023-07-02T11:36:26;3.85;;;1.60;;
56429;SDS011;42332;52.136;20.666;2023-07-02T11:38:51;7.45;;;2.20;;
56429;SDS011;42332;52.136;20.666;2023-07-02T11:41:17;6.28;;;1.70;;
56429;SDS011;42332;52.136;20.666;2023-07-02T11:43:43;7.03;;;2.00;;
56429;SDS011;42332;52.136;20.666;2023-07-02T11:46:08;9.38;;;3.55;;
56429;SDS011;42332;52.136;20.666;2023-07-02T11:48:33;5.95;;;1.92;;
56429;SDS011;42332;52.136;20.666;2023-07-02T11:50:59;4.65;;;1.88;;
56429;SDS011;42332;52.136;20.666;2023-07-02T11:53:24;6.15;;;2.30;;
56429;SDS011;42332;52.136;20.666;2023-07-02T11:55:50;7.50;;;1.92;;
56429;SDS011;42332;52.136;20.666;2023-07-02T11:58:15;5.53;;;1.73;;
56429;SDS011;42332;52.136;20.666;2023-07-02T12:00:40;4.63;;;1.98;;
56429;SDS011;42332;52.136;20.666;2023-07-02T12:03:06;5.70;;;1.92;;
56429;SDS011;42332;52.136;20.666;2023-07-02T12:05:31;4.43;;;1.85;;
56429;SDS011;42332;52.136;20.666;2023-07-02T12:07:56;3.60;;;1.80;;
56429;SDS011;42332;52.136;20.666;2023-07-02T12:10:22;3.42;;;1.77;;
56429;SDS011;42332;52.136;20.666;2023-07-02T12:12:47;4.65;;;2.15;;
56429;SDS011;42332;52.136;20.666;2023-07-02T12:15:12;5.38;;;1.63;;
56429;SDS011;42332;52.136;20.666;2023-07-02T12:17:38;3.38;;;1.52;;
56429;SDS011;42332;52.136;20.666;2023-07-02T12:20:03;3.33;;;1.30;;
56429;SDS011;42332;52.136;20.666;2023-07-02T12:22:29;7.50;;;2.40;;
56429;SDS011;42332;52.136;20.666;2023-07-02T12:24:54;3.30;;;1.25;;
56429;SDS011;42332;52.136;20.666;2023-07-02T12:27:21;7.40;;;1.48;;
56429;SDS011;42332;52.136;20.666;2023-07-02T12:29:46;2.85;;;1.15;;
56429;SDS011;42332;52.136;20.666;2023-07-02T12:32:13;3.10;;;1.48;;
56429;SDS011;42332;52.136;20.666;2023-07-02T12:34:39;3.53;;;1.30;;
56429;SDS011;42332;52.136;20.666;2023-07-02T12:37:04;3.40;;;1.25;;
56429;SDS011;42332;52.136;20.666;2023-07-02T12:39:30;4.47;;;1.15;;
56429;SDS011;42332;52.136;20.666;2023-07-02T12:41:55;1.98;;;0.90;;
56429;SDS011;42332;52.136;20.666;2023-07-02T12:44:20;3.53;;;1.52;;
56429;SDS011;42332;52.136;20.666;2023-07-02T12:46:46;3.70;;;1.27;;
56429;SDS011;42332;52.136;20.666;2023-07-02T12:49:11;3.38;;;1.33;;
56429;SDS011;42332;52.136;20.666;2023-07-02T12:51:36;3.08;;;1.20;;
56429;SDS011;42332;52.136;20.666;2023-07-02T12:54:02;3.83;;;1.42;;
56429;SDS011;42332;52.136;20.666;2023-07-02T12:56:27;2.55;;;1.10;;
56429;SDS011;42332;52.136;20.666;2023-07-02T12:58:53;3.22;;;1.20;;
56429;SDS011;42332;52.136;20.666;2023-07-02T13:01:18;2.75;;;1.08;;
56429;SDS011;42332;52.136;20.666;2023-07-02T13:03:46;4.57;;;1.10;;
56429;SDS011;42332;52.136;20.666;2023-07-02T13:06:12;9.30;;;1.33;;
56429;SDS011;42332;52.136;20.666;2023-07-02T13:08:38;3.20;;;1.05;;
56429;SDS011;42332;52.136;20.666;2023-07-02T13:11:03;8.38;;;1.25;;
56429;SDS011;42332;52.136;20.666;2023-07-02T13:13:28;3.70;;;1.13;;
56429;SDS011;42332;52.136;20.666;2023-07-02T13:15:54;2.92;;;1.13;;
56429;SDS011;42332;52.136;20.666;2023-07-02T13:18:19;3.70;;;1.33;;
56429;SDS011;42332;52.136;20.666;2023-07-02T13:20:44;3.17;;;1.45;;
56429;SDS011;42332;52.136;20.666;2023-07-02T13:23:10;4.40;;;1.20;;
56429;SDS011;42332;52.136;20.666;2023-07-02T13:25:35;5.43;;;1.40;;
56429;SDS011;42332;52.136;20.666;2023-07-02T13:28:00;6.30;;;1.38;;
56429;SDS011;42332;52.136;20.666;2023-07-02T13:30:26;3.67;;;1.50;;
56429;SDS011;42332;52.136;20.666;2023-07-02T13:32:53;3.20;;;1.30;;
56429;SDS011;42332;52.136;20.666;2023-07-02T13:35:18;6.35;;;1.60;;
56429;SDS011;42332;52.136;20.666;2023-07-02T13:37:44;4.53;;;1.55;;
56429;SDS011;42332;52.136;20.666;2023-07-02T13:40:09;9.43;;;1.70;;
56429;SDS011;42332;52.136;20.666;2023-07-02T13:42:37;10.52;;;2.00;;
56429;SDS011;42332;52.136;20.666;2023-07-02T13:45:03;1.77;;;1.00;;
56429;SDS011;42332;52.136;20.666;2023-07-02T13:47:29;5.97;;;1.80;;
56429;SDS011;42332;52.136;20.666;2023-07-02T13:49:54;3.92;;;1.20;;
56429;SDS011;42332;52.136;20.666;2023-07-02T13:52:20;3.10;;;1.27;;
56429;SDS011;42332;52.136;20.666;2023-07-02T13:54:45;3.40;;;1.25;;
56429;SDS011;42332;52.136;20.666;2023-07-02T13:57:10;7.80;;;1.65;;
56429;SDS011;42332;52.136;20.666;2023-07-02T13:59:36;4.35;;;1.23;;
56429;SDS011;42332;52.136;20.666;2023-07-02T14:02:01;9.93;;;1.60;;
56429;SDS011;42332;52.136;20.666;2023-07-02T14:04:26;3.65;;;1.58;;
56429;SDS011;42332;52.136;20.666;2023-07-02T14:06:51;6.78;;;1.13;;
56429;SDS011;42332;52.136;20.666;2023-07-02T14:09:19;7.95;;;1.45;;
56429;SDS011;42332;52.136;20.666;2023-07-02T14:11:44;8.07;;;1.42;;
56429;SDS011;42332;52.136;20.666;2023-07-02T14:14:09;4.40;;;1.40;;
56429;SDS011;42332;52.136;20.666;2023-07-02T14:16:35;7.65;;;1.55;;
56429;SDS011;42332;52.136;20.666;2023-07-02T14:19:00;3.72;;;1.30;;
56429;SDS011;42332;52.136;20.666;2023-07-02T14:21:25;2.85;;;1.20;;
56429;SDS011;42332;52.136;20.666;2023-07-02T14:23:51;3.50;;;1.52;;
56429;SDS011;42332;52.136;20.666;2023-07-02T14:26:16;5.88;;;1.20;;